Latest Weather Observations for Pound Creek

IDV60801

Issued at 5:31 pm EST Sunday 29 May 2016 (issued every 30 minutes, with the page automatically refreshed every 10 minutes)

About weather observations | Map of weather stations | Latest weather observations for VIC | Other Formats
Station Details ID: 085099 Name: POUND CREEK Lat: -38.63 Lon: 145.81 Height: 3.0 m
Data from the previous 72 hours. | See also: Recent months at Pound Creek
Date/Time
EST
Temp
°C
App
Temp
°C
Dew
Point
Rel
Hum
%
Delta-T
°C
Wind Press
QNH
hPa
Press
MSL
hPa
Rain
since 9 am
mm
Dir
 
Spd
km/h
Gust
km/h
Spd
kts
Gust
kts
29/05:30pm 11.6 - - - - W 17 24 9 13 1020.6 1020.6 0.2
29/05:00pm 12.1 - - - - WSW 19 26 10 14 1020.4 1020.4 0.2
29/04:30pm 12.0 - - - - WNW 13 19 7 10 1020.2 1020.2 0.2
29/04:00pm 12.3 - - - - W 17 22 9 12 1020.1 1020.1 0.2
29/03:30pm 12.6 - - - - W 22 30 12 16 1019.8 1019.8 0.2
29/03:00pm 13.4 - - - - WSW 22 28 12 15 1019.6 1019.6 0.2
29/02:30pm 13.1 - - - - WSW 19 28 10 15 1019.4 1019.4 0.2
29/02:00pm 13.9 - - - - WSW 22 33 12 18 1019.2 1019.2 0.2
29/01:30pm 13.9 - - - - WSW 20 28 11 15 1019.1 1019.1 0.2
29/01:00pm 13.1 - - - - WSW 19 26 10 14 1019.1 1019.1 0.2
29/12:30pm 14.0 - - - - WSW 22 28 12 15 1018.9 1018.9 0.2
29/12:00pm 13.9 - - - - WSW 26 33 14 18 1018.9 1018.9 0.2
29/11:30am 13.0 - - - - WSW 24 32 13 17 1019.0 1019.0 0.2
29/11:00am 13.3 - - - - WSW 19 24 10 13 1019.0 1019.0 0.2
29/10:30am 14.3 - - - - WSW 19 30 10 16 1018.9 1018.9 0.0
29/10:00am 13.2 - - - - WSW 26 35 14 19 1018.6 1018.6 0.0
29/09:30am 12.7 - - - - WSW 26 32 14 17 1018.3 1018.3 0.0
29/09:00am 12.5 - - - - WSW 19 28 10 15 1018.0 1018.0 4.8
29/08:30am 11.9 - - - - WSW 19 28 10 15 1017.7 1017.7 4.8
29/08:00am 10.9 - - - - SSW 22 33 12 18 1017.6 1017.6 4.8
29/07:30am 12.0 - - - - WSW 22 30 12 16 1017.1 1017.1 4.8
29/07:00am 11.6 - - - - SW 26 37 14 20 1016.9 1016.9 4.8
29/06:30am 11.2 - - - - SW 17 33 9 18 1016.7 1016.7 4.8
29/06:00am 10.4 - - - - SSW 20 33 11 18 1016.5 1016.5 4.6
29/05:30am 11.9 - - - - WSW 24 33 13 18 1016.3 1016.3 4.4
29/05:00am 12.4 - - - - WSW 26 35 14 19 1015.8 1015.8 4.4
29/04:30am 12.2 - - - - WSW 26 33 14 18 1015.8 1015.8 4.4
29/04:00am 12.5 - - - - WSW 26 37 14 20 1015.4 1015.4 4.4
29/03:30am 12.3 - - - - WSW 28 33 15 18 1015.2 1015.2 4.4
29/03:00am 12.1 - - - - WSW 28 39 15 21 1015.0 1015.0 4.4
29/02:30am 12.1 - - - - WSW 26 37 14 20 1015.1 1015.1 4.4
29/02:00am 11.9 - - - - WSW 24 35 13 19 1014.8 1014.8 4.4
29/01:30am 11.5 - - - - W 20 30 11 16 1014.7 1014.7 4.4
29/01:00am 11.2 - - - - SW 24 33 13 18 1014.8 1014.8 4.2
29/12:30am 10.9 - - - - WSW 30 43 16 23 1014.5 1014.5 4.2
29/12:00am 10.9 - - - - W 24 33 13 18 1014.6 1014.6 4.2
 
Date/Time
EST
Temp
°C
App
Temp
°C
Dew
Point
Rel
Hum
%
Delta-T
°C
Wind Press
QNH
hPa
Press
MSL
hPa
Rain
since 9 am
mm
Dir
 
Spd
km/h
Gust
km/h
Spd
kts
Gust
kts
28/11:30pm 11.4 - - - - WSW 24 41 13 22 1014.6 1014.6 4.2
28/11:00pm 11.5 - - - - WSW 19 32 10 17 1014.5 1014.5 4.2
28/10:30pm 10.7 - - - - WSW 24 41 13 22 1014.5 1014.5 4.2
28/10:00pm 12.3 - - - - WSW 26 39 14 21 1014.4 1014.4 4.0
28/09:30pm 11.9 - - - - WSW 26 35 14 19 1014.4 1014.4 4.0
28/09:00pm 11.5 - - - - WSW 20 32 11 17 1014.4 1014.4 4.0
28/08:30pm 11.5 - - - - WSW 30 41 16 22 1014.1 1014.1 4.0
28/08:00pm 11.6 - - - - WSW 26 35 14 19 1013.8 1013.8 4.0
28/07:30pm 11.2 - - - - WSW 30 39 16 21 1013.6 1013.6 4.0
28/07:00pm 11.3 - - - - SW 30 41 16 22 1013.4 1013.4 3.8
28/06:30pm 11.8 - - - - SSW 28 37 15 20 1013.2 1013.2 2.8
28/06:00pm 11.7 - - - - SSW 28 41 15 22 1012.8 1012.8 2.8
28/05:30pm 12.0 - - - - SW 30 39 16 21 1012.3 1012.3 2.8
28/05:00pm 12.0 - - - - SW 26 33 14 18 1012.0 1012.0 2.8
28/04:30pm 11.9 - - - - WSW 20 30 11 16 1011.8 1011.8 2.8
28/04:00pm 11.2 - - - - SSW 13 20 7 11 1011.6 1011.6 2.8
28/03:30pm 10.6 - - - - SW 19 30 10 16 1011.6 1011.6 2.6
28/03:00pm 11.4 - - - - WSW 20 28 11 15 1011.2 1011.2 0.6
28/02:30pm 11.7 - - - - SW 24 35 13 19 1010.9 1010.9 0.2
28/02:00pm 12.8 - - - - SW 26 33 14 18 1010.5 1010.5 0.2
28/01:30pm 12.8 - - - - SW 19 24 10 13 1010.3 1010.3 0.2
28/01:00pm 12.7 - - - - SSW 20 28 11 15 1010.3 1010.3 0.2
28/12:30pm 13.8 - - - - SSW 22 30 12 16 1010.3 1010.3 0.2
28/12:00pm 13.8 - - - - SSW 20 30 11 16 1010.4 1010.4 0.2
28/11:30am 13.0 - - - - SSW 26 32 14 17 1010.4 1010.4 0.2
28/11:00am 12.4 - - - - SSW 26 33 14 18 1010.5 1010.5 0.2
28/10:30am 12.8 - - - - SSW 24 33 13 18 1010.5 1010.5 0.2
28/10:00am 11.9 - - - - SSW 19 28 10 15 1010.3 1010.3 0.2
28/09:30am 11.5 - - - - S 7 11 4 6 1009.9 1009.9 0.2
28/09:00am 10.0 - - - - N 2 6 1 3 1009.7 1009.7 0.8
28/08:30am 9.1 - - - - NNE 6 6 3 3 1009.5 1009.5 0.8
28/08:00am 8.3 - - - - NNW 6 7 3 4 1009.4 1009.4 0.8
28/07:30am 8.0 - - - - NNW 9 13 5 7 1009.0 1009.0 0.8
28/07:00am 7.8 - - - - N 7 9 4 5 1008.7 1008.7 0.8
28/06:30am 6.9 - - - - NNW 11 13 6 7 1008.4 1008.4 0.8
28/06:00am 7.1 - - - - N 9 11 5 6 1008.2 1008.2 0.8
28/05:30am 7.1 - - - - N 11 13 6 7 1008.0 1008.0 0.8
28/05:00am 7.1 - - - - NNW 9 13 5 7 1007.8 1007.8 0.8
28/04:30am 7.6 - - - - NNW 9 11 5 6 1007.8 1007.8 0.8
28/04:00am 7.5 - - - - N 7 9 4 5 1007.8 1007.8 0.8
28/03:30am 7.2 - - - - N 9 11 5 6 1007.9 1007.9 0.6
28/03:00am 6.8 - - - - N 7 9 4 5 1008.0 1008.0 0.4
28/02:30am 6.7 - - - - NNW 7 9 4 5 1008.1 1008.1 0.2
28/02:00am 5.6 - - - - N 11 15 6 8 1008.0 1008.0 0.2
28/01:30am 5.0 - - - - N 11 13 6 7 1007.9 1007.9 0.2
28/01:00am 5.2 - - - - N 4 7 2 4 1007.9 1007.9 0.2
28/12:30am 4.5 - - - - N 2 4 1 2 1008.0 1008.0 0.2
28/12:00am 4.8 - - - - CALM 0 2 0 1 1008.1 1008.1 0.2
 
Date/Time
EST
Temp
°C
App
Temp
°C
Dew
Point
Rel
Hum
%
Delta-T
°C
Wind Press
QNH
hPa
Press
MSL
hPa
Rain
since 9 am
mm
Dir
 
Spd
km/h
Gust
km/h
Spd
kts
Gust
kts
27/11:30pm 6.0 - - - - N 4 6 2 3 1008.1 1008.1 0.2
27/11:00pm 5.4 - - - - NNE 2 4 1 2 1008.1 1008.1 0.2
27/10:30pm 6.6 - - - - NE 4 6 2 3 1008.1 1008.1 0.2
27/10:00pm 6.9 - - - - N 11 13 6 7 1008.2 1008.2 0.2
27/09:30pm 6.5 - - - - N 4 7 2 4 1008.1 1008.1 0.2
27/09:00pm 7.2 - - - - N 9 11 5 6 1007.9 1007.9 0.2
27/08:30pm 7.3 - - - - N 9 11 5 6 1007.8 1007.8 0.2
27/08:00pm 7.0 - - - - N 9 11 5 6 1007.6 1007.6 0.2
27/07:30pm 7.0 - - - - N 7 9 4 5 1007.5 1007.5 0.2
27/07:00pm 7.9 - - - - N 6 7 3 4 1007.5 1007.5 0.2
27/06:30pm 9.4 - - - - NW 4 6 2 3 1007.3 1007.3 0.2
27/06:00pm 9.6 - - - - NW 6 7 3 4 1007.2 1007.2 0.2
27/05:30pm 10.4 - - - - WSW 6 7 3 4 1006.8 1006.8 0.2
27/05:00pm 11.6 - - - - SSW 11 15 6 8 1006.6 1006.6 0.2
27/04:30pm 12.4 - - - - SW 17 22 9 12 1006.4 1006.4 0.2
27/04:00pm 12.7 - - - - WSW 19 24 10 13 1006.4 1006.4 0.2
27/03:30pm 13.4 - - - - SW 20 26 11 14 1006.1 1006.1 0.2
27/03:00pm 13.5 - - - - WSW 20 26 11 14 1005.9 1005.9 0.2
27/02:30pm 13.7 - - - - SW 19 26 10 14 1005.8 1005.8 0.2
27/02:00pm 13.1 - - - - WSW 20 30 11 16 1005.9 1005.9 0.0
27/01:30pm 13.9 - - - - SW 22 28 12 15 1005.9 1005.9 0.0
27/01:00pm 13.9 - - - - SW 20 28 11 15 1006.0 1006.0 0.0
27/12:30pm 13.6 - - - - SW 20 28 11 15 1006.1 1006.1 0.0
27/12:00pm 13.6 - - - - SW 20 26 11 14 1006.2 1006.2 0.0
27/11:30am 13.6 - - - - WSW 24 33 13 18 1006.4 1006.4 0.0
27/11:00am 13.0 - - - - SW 20 26 11 14 1006.5 1006.5 0.0
27/10:30am 11.9 - - - - SSW 20 32 11 17 1006.6 1006.6 0.0
27/10:00am 13.3 - - - - WSW 22 28 12 15 1006.4 1006.4 0.0
27/09:30am 11.0 - - - - WSW 20 37 11 20 1006.4 1006.4 0.0
27/09:00am 12.0 - - - - SW 20 32 11 17 1006.2 1006.2 11.8
27/08:30am 11.7 - - - - WSW 19 24 10 13 1006.1 1006.1 11.6
27/08:00am 11.5 - - - - WSW 20 28 11 15 1005.8 1005.8 11.6
27/07:30am 11.1 - - - - WSW 20 28 11 15 1005.7 1005.7 11.6
27/07:00am 11.1 - - - - WSW 20 28 11 15 1005.4 1005.4 11.6
27/06:30am 11.5 - - - - SW 22 32 12 17 1005.5 1005.5 11.6
27/06:00am 10.9 - - - - SSW 19 28 10 15 1005.4 1005.4 11.6
27/05:30am 11.3 - - - - SSW 19 24 10 13 1005.3 1005.3 11.6
27/05:00am 11.6 - - - - WSW 26 33 14 18 1005.1 1005.1 11.6
27/04:30am 10.7 - - - - SW 22 32 12 17 1005.0 1005.0 11.6
27/04:00am 11.6 - - - - SW 28 35 15 19 1004.9 1004.9 11.6
27/03:30am 11.4 - - - - SW 28 37 15 20 1004.9 1004.9 11.6
27/03:00am 11.6 - - - - WSW 30 41 16 22 1004.9 1004.9 11.6
27/02:30am 11.4 - - - - SSW 26 37 14 20 1005.0 1005.0 11.2
27/02:00am 11.6 - - - - WSW 28 37 15 20 1004.9 1004.9 11.2
27/01:30am 11.8 - - - - WSW 28 37 15 20 1004.8 1004.8 11.2
27/01:00am 11.8 - - - - SW 30 39 16 21 1004.8 1004.8 11.2
27/12:30am 11.8 - - - - SW 24 33 13 18 1004.9 1004.9 11.2
27/12:00am 11.2 - - - - WSW 22 32 12 17 1005.0 1005.0 11.2
 
Date/Time
EST
Temp
°C
App
Temp
°C
Dew
Point
Rel
Hum
%
Delta-T
°C
Wind Press
QNH
hPa
Press
MSL
hPa
Rain
since 9 am
mm
Dir
 
Spd
km/h
Gust
km/h
Spd
kts
Gust
kts
26/11:30pm 11.6 - - - - SW 26 33 14 18 1005.0 1005.0 11.2
26/11:00pm 11.6 - - - - SW 28 39 15 21 1005.0 1005.0 11.2
26/10:30pm 11.3 - - - - SW 26 39 14 21 1005.1 1005.1 11.0
26/10:00pm 12.2 - - - - SW 30 37 16 20 1005.0 1005.0 11.0
26/09:30pm 12.1 - - - - SW 30 41 16 22 1004.9 1004.9 11.0
26/09:00pm 12.1 - - - - SW 24 33 13 18 1004.8 1004.8 11.0
26/08:30pm 12.2 - - - - SW 32 43 17 23 1004.4 1004.4 11.0
26/08:00pm 11.8 - - - - WSW 22 33 12 18 1004.2 1004.2 10.8
26/07:51pm 11.6 - - - - SW 28 50 15 27 1004.2 1004.2 10.8
26/07:30pm 12.3 - - - - SW 22 35 12 19 1004.0 1004.0 10.8
26/07:00pm 12.1 - - - - SW 22 35 12 19 1003.8 1003.8 10.8
26/06:30pm 10.2 - - - - W 9 11 5 6 1003.7 1003.7 10.8
26/06:00pm 10.6 - - - - SW 24 32 13 17 1003.5 1003.5 10.6

Other Formats:

Comma delimited format used in spreadsheet applications
http://www.bom.gov.au/fwo/IDV60801/IDV60801.94886.axf

JavaScript Object Notation format (JSON) in row-major order
http://www.bom.gov.au/fwo/IDV60801/IDV60801.94886.json